createdAt,value
2022-11-29T00:01:43.877Z,63.03
2022-11-29T00:04:12.619Z,56.50
2022-11-29T00:06:41.487Z,53.45
2022-11-29T00:09:13.484Z,51.15
2022-11-29T00:12:00.623Z,51.60
2022-11-29T00:14:29.822Z,52.60
2022-11-29T00:17:02.684Z,50.00
2022-11-29T00:19:32.250Z,47.85
2022-11-29T00:22:01.146Z,54.08
2022-11-29T00:24:31.748Z,53.97
2022-11-29T00:27:01.287Z,50.38
2022-11-29T00:29:31.252Z,49.88
2022-11-29T00:32:01.622Z,57.30
2022-11-29T00:34:30.517Z,49.35
2022-11-29T00:36:59.131Z,51.55
2022-11-29T00:39:27.996Z,51.50
2022-11-29T00:41:56.524Z,49.58
2022-11-29T00:44:25.119Z,57.47
2022-11-29T00:46:53.697Z,52.85
2022-11-29T00:49:23.658Z,54.20
2022-11-29T00:51:52.325Z,53.85
2022-11-29T00:54:20.888Z,51.50
2022-11-29T00:56:49.481Z,49.30
2022-11-29T00:59:18.010Z,52.63
2022-11-29T01:01:46.693Z,50.97
2022-11-29T01:04:15.308Z,58.05
2022-11-29T01:06:45.785Z,51.13
2022-11-29T01:09:14.348Z,54.47
2022-11-29T01:11:42.873Z,58.22
2022-11-29T01:14:13.284Z,56.88
2022-11-29T01:16:41.914Z,59.20
2022-11-29T01:19:10.732Z,54.75
2022-11-29T01:21:39.357Z,54.38
2022-11-29T01:24:09.428Z,54.17
2022-11-29T01:26:37.948Z,53.90
2022-11-29T01:29:06.381Z,60.28
2022-11-29T01:31:36.735Z,57.03
2022-11-29T01:34:08.066Z,57.17
2022-11-29T01:36:37.063Z,57.60
2022-11-29T01:39:08.267Z,60.17
2022-11-29T01:41:38.685Z,60.15
2022-11-29T01:44:28.546Z,69.73
2022-11-29T01:46:59.183Z,69.50
2022-11-29T01:49:31.682Z,67.03
2022-11-29T01:52:04.079Z,69.63
2022-11-29T01:54:36.119Z,67.55
2022-11-29T01:57:07.102Z,66.40
2022-11-29T01:59:37.698Z,65.85
2022-11-29T02:02:13.421Z,65.30
2022-11-29T02:04:44.855Z,67.05
2022-11-29T02:07:14.460Z,66.28
2022-11-29T02:09:43.282Z,63.80
2022-11-29T02:12:23.724Z,64.28
2022-11-29T02:15:08.149Z,64.47
2022-11-29T02:17:52.652Z,64.95
2022-11-29T02:20:58.623Z,64.63
2022-11-29T02:23:53.069Z,66.88
2022-11-29T02:26:35.956Z,62.88
2022-11-29T02:29:31.259Z,63.50
2022-11-29T02:32:30.705Z,62.27
2022-11-29T02:35:16.616Z,63.53
2022-11-29T02:38:06.065Z,65.82
2022-11-29T02:40:56.139Z,63.05
2022-11-29T02:43:38.024Z,63.08
2022-11-29T02:46:21.668Z,64.72
2022-11-29T02:49:02.199Z,62.42
2022-11-29T02:51:40.673Z,63.92
2022-11-29T02:54:17.552Z,63.50
2022-11-29T02:56:53.252Z,62.03
2022-11-29T02:59:46.994Z,63.53
2022-11-29T03:02:24.606Z,65.97
2022-11-29T03:05:01.137Z,63.30
2022-11-29T03:07:40.638Z,63.25
2022-11-29T03:10:19.266Z,63.92
2022-11-29T03:12:50.644Z,66.03
2022-11-29T03:15:28.771Z,64.03
2022-11-29T03:18:04.712Z,62.42
2022-11-29T03:20:46.537Z,61.77
2022-11-29T03:23:23.295Z,65.40
2022-11-29T03:25:58.614Z,62.63
2022-11-29T03:28:32.448Z,61.33
2022-11-29T03:31:11.370Z,62.20
2022-11-29T03:33:49.402Z,62.50
2022-11-29T03:36:25.178Z,64.93
2022-11-29T03:38:59.827Z,61.92
2022-11-29T03:41:34.001Z,60.72
2022-11-29T03:44:12.122Z,61.72
2022-11-29T03:46:49.022Z,63.78
2022-11-29T03:49:24.879Z,63.75
2022-11-29T03:52:04.989Z,62.67
2022-11-29T03:54:47.941Z,61.15
2022-11-29T03:57:22.204Z,60.53
2022-11-29T04:00:02.987Z,62.20
2022-11-29T04:03:00.963Z,61.63
2022-11-29T04:05:55.769Z,59.35
2022-11-29T04:09:12.997Z,60.70
2022-11-29T04:12:35.302Z,60.40
2022-11-29T04:15:39.938Z,60.53
2022-11-29T04:18:34.438Z,57.10
2022-11-29T04:21:24.339Z,61.30
2022-11-29T04:24:22.532Z,61.22
2022-11-29T04:27:21.773Z,60.40
2022-11-29T04:30:05.490Z,61.03
2022-11-29T04:33:02.881Z,61.45
2022-11-29T04:35:43.275Z,59.15
2022-11-29T04:38:27.528Z,62.20
2022-11-29T04:41:23.070Z,59.37
2022-11-29T04:44:10.791Z,62.72
2022-11-29T04:47:14.402Z,63.20
2022-11-29T04:50:12.304Z,62.25
2022-11-29T04:53:26.746Z,61.53
2022-11-29T04:56:06.950Z,63.65
2022-11-29T04:58:40.897Z,60.05
2022-11-29T05:01:19.842Z,64.57
2022-11-29T05:03:57.362Z,60.43
2022-11-29T05:06:33.829Z,60.47
2022-11-29T05:09:15.019Z,62.13
2022-11-29T05:11:57.064Z,61.43
2022-11-29T05:14:37.220Z,64.28
2022-11-29T05:17:39.793Z,62.60
2022-11-29T05:20:28.353Z,62.78
2022-11-29T05:23:13.323Z,67.13
2022-11-29T05:25:46.628Z,65.65
2022-11-29T05:28:25.597Z,64.70
2022-11-29T05:31:25.160Z,65.22
2022-11-29T05:34:20.320Z,63.97
2022-11-29T05:36:57.202Z,66.95
2022-11-29T05:39:42.394Z,69.05
2022-11-29T05:42:29.867Z,65.82
2022-11-29T05:45:04.897Z,62.47
2022-11-29T05:47:38.518Z,62.65
2022-11-29T05:50:16.265Z,66.15
2022-11-29T05:52:52.043Z,64.45
2022-11-29T05:55:33.243Z,70.80
2022-11-29T05:58:05.854Z,67.95
2022-11-29T06:00:44.673Z,68.10
2022-11-29T06:03:21.029Z,64.90
2022-11-29T06:05:56.831Z,63.87
2022-11-29T06:08:36.532Z,68.40
2022-11-29T06:11:10.284Z,67.45
2022-11-29T06:13:51.232Z,64.93
2022-11-29T06:16:40.070Z,65.43
2022-11-29T06:19:43.986Z,68.73
2022-11-29T06:22:41.305Z,68.28
2022-11-29T06:25:22.436Z,66.43
2022-11-29T06:28:04.457Z,67.00
2022-11-29T06:30:49.045Z,67.85
2022-11-29T06:33:24.014Z,69.67
2022-11-29T06:36:08.615Z,69.10
2022-11-29T06:38:41.625Z,69.38
2022-11-29T06:41:15.472Z,69.45
2022-11-29T06:43:46.531Z,66.93
2022-11-29T06:46:24.341Z,70.45
2022-11-29T06:49:02.079Z,71.93
2022-11-29T06:51:38.446Z,67.32
2022-11-29T06:54:20.770Z,67.20
2022-11-29T06:56:56.895Z,68.00
2022-11-29T06:59:40.316Z,72.82
2022-11-29T07:02:29.336Z,69.43
2022-11-29T07:05:11.235Z,66.95
2022-11-29T07:07:40.825Z,68.88
2022-11-29T07:10:17.094Z,70.18
2022-11-29T07:12:46.427Z,68.37
2022-11-29T07:15:18.348Z,68.53
2022-11-29T07:18:11.079Z,71.90
2022-11-29T07:20:49.928Z,66.45
2022-11-29T07:23:29.888Z,68.20
2022-11-29T07:26:09.852Z,70.57
2022-11-29T07:28:49.842Z,68.83
2022-11-29T07:31:26.212Z,69.78
2022-11-29T07:34:05.591Z,73.55
2022-11-29T07:36:42.341Z,72.70
2022-11-29T07:39:23.620Z,72.88
2022-11-29T07:42:01.630Z,72.53
2022-11-29T07:44:37.298Z,73.95
2022-11-29T07:47:05.933Z,72.13
2022-11-29T07:49:34.478Z,71.20
2022-11-29T07:52:03.095Z,75.45
2022-11-29T07:54:32.193Z,75.65
2022-11-29T07:57:02.151Z,73.10
2022-11-29T07:59:30.776Z,74.13
2022-11-29T08:01:59.563Z,72.72
2022-11-29T08:04:28.130Z,74.38
2022-11-29T08:07:00.523Z,75.95
2022-11-29T08:09:29.023Z,75.47
2022-11-29T08:11:57.543Z,75.90
2022-11-29T08:14:27.691Z,71.25
2022-11-29T08:16:56.171Z,76.65
2022-11-29T08:19:24.618Z,74.20
2022-11-29T08:21:53.236Z,77.18
2022-11-29T08:24:21.807Z,73.72
2022-11-29T08:26:50.766Z,74.43
2022-11-29T08:29:19.486Z,75.53
2022-11-29T08:31:53.633Z,72.82
2022-11-29T08:34:22.286Z,76.18
2022-11-29T08:36:51.046Z,77.15
2022-11-29T08:39:19.597Z,77.05
2022-11-29T08:41:48.132Z,76.13
2022-11-29T08:44:16.899Z,75.00
2022-11-29T08:47:03.341Z,75.87
2022-11-29T08:49:33.287Z,72.68
2022-11-29T08:52:15.574Z,75.30
2022-11-29T08:54:44.599Z,73.90
2022-11-29T09:00:01.911Z,76.45
2022-11-29T09:02:30.430Z,79.30
2022-11-29T09:05:00.420Z,78.75
2022-11-29T09:07:28.957Z,75.30
2022-11-29T09:10:01.132Z,78.13
2022-11-29T09:12:29.586Z,76.00
2022-11-29T09:14:58.163Z,79.22
2022-11-29T09:17:26.664Z,71.43
2022-11-29T09:19:55.184Z,73.03
2022-11-29T09:22:25.148Z,76.13
2022-11-29T09:24:53.723Z,76.07
2022-11-29T09:27:22.313Z,75.70
2022-11-29T09:29:50.729Z,75.55
2022-11-29T09:32:19.266Z,83.47
2022-11-29T09:34:48.337Z,74.50
2022-11-29T09:37:16.963Z,75.25
2022-11-29T09:39:46.868Z,74.90
2022-11-29T09:42:36.232Z,74.57
2022-11-29T09:45:08.181Z,75.00
2022-11-29T09:48:00.663Z,74.63
2022-11-29T09:50:34.642Z,73.03
2022-11-29T09:53:24.013Z,74.55
2022-11-29T09:56:03.675Z,72.87
2022-11-29T09:58:40.807Z,77.60
2022-11-29T10:01:14.571Z,73.77
2022-11-29T10:03:46.862Z,72.83
2022-11-29T10:06:20.669Z,73.50
2022-11-29T10:08:55.494Z,75.15
2022-11-29T10:11:30.004Z,77.63
2022-11-29T10:14:04.154Z,72.47
2022-11-29T10:16:42.460Z,72.07
2022-11-29T10:19:20.893Z,75.50
2022-11-29T10:21:57.234Z,73.85
2022-11-29T10:24:28.305Z,73.70
2022-11-29T10:26:58.519Z,76.30
2022-11-29T10:29:27.316Z,72.75
2022-11-29T10:31:56.974Z,74.75
2022-11-29T10:34:27.200Z,75.25
2022-11-29T10:36:59.591Z,77.27
2022-11-29T10:39:42.258Z,75.88
2022-11-29T10:42:31.854Z,68.38
2022-11-29T10:45:01.415Z,63.42
2022-11-29T10:47:30.026Z,63.95
2022-11-29T10:49:59.413Z,66.07
2022-11-29T10:52:27.822Z,70.60
2022-11-29T10:54:59.907Z,67.30
2022-11-29T10:57:29.861Z,69.35
2022-11-29T11:00:04.006Z,70.57
2022-11-29T11:02:33.294Z,67.00
2022-11-29T11:05:02.487Z,68.57
2022-11-29T11:07:35.254Z,63.78
2022-11-29T11:10:18.567Z,70.70
2022-11-29T11:13:03.074Z,69.47
2022-11-29T11:15:33.181Z,65.43
2022-11-29T11:18:04.856Z,66.75
2022-11-29T11:20:36.245Z,66.50
2022-11-29T11:23:06.900Z,65.50
2022-11-29T11:25:38.226Z,64.75
2022-11-29T11:28:20.980Z,69.45
2022-11-29T11:30:54.212Z,68.90
2022-11-29T11:33:27.321Z,74.65
2022-11-29T11:36:05.813Z,70.55
2022-11-29T11:38:39.064Z,71.72
2022-11-29T11:41:20.497Z,69.03
2022-11-29T11:43:57.762Z,70.88
2022-11-29T11:46:47.493Z,71.38
2022-11-29T11:49:25.564Z,67.55
2022-11-29T11:51:54.210Z,69.55
